sensor_id;sensor_type;location;lat;lon;timestamp;P1;durP1;ratioP1;P2;durP2;ratioP2
75048;SDS011;63803;53.120;8.764;2022-10-23T00:00:36;7.53;;;3.10;;
75048;SDS011;63803;53.120;8.764;2022-10-23T00:03:02;4.43;;;3.03;;
75048;SDS011;63803;53.120;8.764;2022-10-23T00:05:28;4.80;;;3.30;;
75048;SDS011;63803;53.120;8.764;2022-10-23T00:07:56;4.85;;;2.90;;
75048;SDS011;63803;53.120;8.764;2022-10-23T00:10:24;5.35;;;3.10;;
75048;SDS011;63803;53.120;8.764;2022-10-23T00:12:50;4.07;;;3.22;;
75048;SDS011;63803;53.120;8.764;2022-10-23T00:15:17;4.65;;;3.10;;
75048;SDS011;63803;53.120;8.764;2022-10-23T00:17:45;5.88;;;3.40;;
75048;SDS011;63803;53.120;8.764;2022-10-23T00:20:11;9.52;;;3.28;;
75048;SDS011;63803;53.120;8.764;2022-10-23T00:22:38;5.38;;;2.90;;
75048;SDS011;63803;53.120;8.764;2022-10-23T00:25:04;4.72;;;3.05;;
75048;SDS011;63803;53.120;8.764;2022-10-23T00:27:32;5.32;;;2.90;;
75048;SDS011;63803;53.120;8.764;2022-10-23T00:29:58;3.70;;;2.83;;
75048;SDS011;63803;53.120;8.764;2022-10-23T00:32:24;3.28;;;2.92;;
75048;SDS011;63803;53.120;8.764;2022-10-23T00:34:51;8.93;;;3.00;;
75048;SDS011;63803;53.120;8.764;2022-10-23T00:37:16;4.85;;;2.70;;
75048;SDS011;63803;53.120;8.764;2022-10-23T00:39:42;7.55;;;3.15;;
75048;SDS011;63803;53.120;8.764;2022-10-23T00:42:18;3.60;;;3.10;;
75048;SDS011;63803;53.120;8.764;2022-10-23T00:47:12;3.50;;;2.97;;
75048;SDS011;63803;53.120;8.764;2022-10-23T00:49:38;5.20;;;3.28;;
75048;SDS011;63803;53.120;8.764;2022-10-23T00:52:05;3.33;;;2.90;;
75048;SDS011;63803;53.120;8.764;2022-10-23T00:54:38;3.95;;;3.25;;
75048;SDS011;63803;53.120;8.764;2022-10-23T00:57:06;4.22;;;3.00;;
75048;SDS011;63803;53.120;8.764;2022-10-23T00:59:36;3.58;;;2.70;;
75048;SDS011;63803;53.120;8.764;2022-10-23T01:02:02;5.90;;;2.85;;
75048;SDS011;63803;53.120;8.764;2022-10-23T01:04:28;5.32;;;3.03;;
75048;SDS011;63803;53.120;8.764;2022-10-23T01:07:03;3.75;;;2.78;;
75048;SDS011;63803;53.120;8.764;2022-10-23T01:09:33;7.70;;;2.85;;
75048;SDS011;63803;53.120;8.764;2022-10-23T01:15:03;4.05;;;2.70;;
75048;SDS011;63803;53.120;8.764;2022-10-23T01:23:12;4.40;;;3.00;;
75048;SDS011;63803;53.120;8.764;2022-10-23T01:29:07;4.90;;;3.10;;
75048;SDS011;63803;53.120;8.764;2022-10-23T01:31:13;4.18;;;2.83;;
75048;SDS011;63803;53.120;8.764;2022-10-23T01:33:51;4.43;;;2.90;;
75048;SDS011;63803;53.120;8.764;2022-10-23T01:36:24;9.52;;;3.10;;
75048;SDS011;63803;53.120;8.764;2022-10-23T01:41:33;4.05;;;2.92;;
75048;SDS011;63803;53.120;8.764;2022-10-23T01:44:39;4.40;;;2.72;;
75048;SDS011;63803;53.120;8.764;2022-10-23T01:47:29;5.55;;;2.90;;
75048;SDS011;63803;53.120;8.764;2022-10-23T01:49:59;5.05;;;3.13;;
75048;SDS011;63803;53.120;8.764;2022-10-23T01:52:27;3.50;;;2.67;;
75048;SDS011;63803;53.120;8.764;2022-10-23T01:54:53;3.78;;;2.78;;
75048;SDS011;63803;53.120;8.764;2022-10-23T01:57:22;3.65;;;3.05;;
75048;SDS011;63803;53.120;8.764;2022-10-23T01:59:56;5.80;;;2.83;;
75048;SDS011;63803;53.120;8.764;2022-10-23T02:02:28;3.45;;;2.97;;
75048;SDS011;63803;53.120;8.764;2022-10-23T02:05:02;3.40;;;2.70;;
75048;SDS011;63803;53.120;8.764;2022-10-23T02:07:30;3.58;;;2.72;;
75048;SDS011;63803;53.120;8.764;2022-10-23T02:09:56;4.47;;;2.45;;
75048;SDS011;63803;53.120;8.764;2022-10-23T02:12:28;4.68;;;3.05;;
75048;SDS011;63803;53.120;8.764;2022-10-23T02:17:37;3.40;;;2.80;;
75048;SDS011;63803;53.120;8.764;2022-10-23T02:20:16;4.40;;;2.70;;
75048;SDS011;63803;53.120;8.764;2022-10-23T02:25:47;3.75;;;3.00;;
75048;SDS011;63803;53.120;8.764;2022-10-23T02:28:37;4.88;;;3.03;;
75048;SDS011;63803;53.120;8.764;2022-10-23T02:31:16;6.28;;;3.00;;
75048;SDS011;63803;53.120;8.764;2022-10-23T02:33:44;3.08;;;2.78;;
75048;SDS011;63803;53.120;8.764;2022-10-23T02:36:12;3.70;;;2.90;;
75048;SDS011;63803;53.120;8.764;2022-10-23T02:38:39;3.03;;;2.25;;
75048;SDS011;63803;53.120;8.764;2022-10-23T02:41:10;3.15;;;2.63;;
75048;SDS011;63803;53.120;8.764;2022-10-23T02:48:52;3.10;;;2.45;;
75048;SDS011;63803;53.120;8.764;2022-10-23T02:51:26;13.63;;;2.85;;
75048;SDS011;63803;53.120;8.764;2022-10-23T02:54:07;10.23;;;2.85;;
75048;SDS011;63803;53.120;8.764;2022-10-23T02:56:49;4.07;;;3.00;;
75048;SDS011;63803;53.120;8.764;2022-10-23T02:59:26;5.38;;;2.80;;
75048;SDS011;63803;53.120;8.764;2022-10-23T03:02:09;3.95;;;2.72;;
75048;SDS011;63803;53.120;8.764;2022-10-23T03:04:43;3.70;;;2.70;;
75048;SDS011;63803;53.120;8.764;2022-10-23T03:07:11;2.45;;;2.25;;
75048;SDS011;63803;53.120;8.764;2022-10-23T03:09:37;7.03;;;2.40;;
75048;SDS011;63803;53.120;8.764;2022-10-23T03:12:03;5.20;;;2.75;;
75048;SDS011;63803;53.120;8.764;2022-10-23T03:14:29;3.28;;;2.38;;
75048;SDS011;63803;53.120;8.764;2022-10-23T03:16:55;5.57;;;2.65;;
75048;SDS011;63803;53.120;8.764;2022-10-23T03:19:21;2.75;;;2.40;;
75048;SDS011;63803;53.120;8.764;2022-10-23T03:21:47;4.30;;;2.97;;
75048;SDS011;63803;53.120;8.764;2022-10-23T03:24:12;3.53;;;2.45;;
75048;SDS011;63803;53.120;8.764;2022-10-23T03:26:38;5.75;;;2.60;;
75048;SDS011;63803;53.120;8.764;2022-10-23T03:29:04;5.78;;;2.63;;
75048;SDS011;63803;53.120;8.764;2022-10-23T03:31:30;3.42;;;2.75;;
75048;SDS011;63803;53.120;8.764;2022-10-23T03:33:55;3.80;;;2.50;;
75048;SDS011;63803;53.120;8.764;2022-10-23T03:36:21;3.78;;;2.70;;
75048;SDS011;63803;53.120;8.764;2022-10-23T03:38:47;3.53;;;2.42;;
75048;SDS011;63803;53.120;8.764;2022-10-23T03:41:13;3.25;;;2.58;;
75048;SDS011;63803;53.120;8.764;2022-10-23T03:43:39;5.72;;;2.70;;
75048;SDS011;63803;53.120;8.764;2022-10-23T03:46:05;4.00;;;2.50;;
75048;SDS011;63803;53.120;8.764;2022-10-23T03:48:34;5.18;;;2.92;;
75048;SDS011;63803;53.120;8.764;2022-10-23T03:51:03;3.47;;;2.88;;
75048;SDS011;63803;53.120;8.764;2022-10-23T03:53:29;3.17;;;2.33;;
75048;SDS011;63803;53.120;8.764;2022-10-23T03:55:55;4.30;;;2.70;;
75048;SDS011;63803;53.120;8.764;2022-10-23T03:58:21;3.83;;;2.38;;
75048;SDS011;63803;53.120;8.764;2022-10-23T04:00:47;4.28;;;2.22;;
75048;SDS011;63803;53.120;8.764;2022-10-23T04:03:12;3.58;;;2.80;;
75048;SDS011;63803;53.120;8.764;2022-10-23T04:05:39;2.70;;;2.40;;
75048;SDS011;63803;53.120;8.764;2022-10-23T04:08:06;3.92;;;2.50;;
75048;SDS011;63803;53.120;8.764;2022-10-23T04:10:31;4.70;;;2.30;;
75048;SDS011;63803;53.120;8.764;2022-10-23T04:12:57;4.10;;;2.40;;
75048;SDS011;63803;53.120;8.764;2022-10-23T04:15:23;2.60;;;2.30;;
75048;SDS011;63803;53.120;8.764;2022-10-23T04:17:49;2.53;;;2.30;;
75048;SDS011;63803;53.120;8.764;2022-10-23T04:20:15;3.70;;;2.30;;
75048;SDS011;63803;53.120;8.764;2022-10-23T04:22:40;2.55;;;2.30;;
75048;SDS011;63803;53.120;8.764;2022-10-23T04:25:09;5.22;;;2.40;;
75048;SDS011;63803;53.120;8.764;2022-10-23T04:27:35;4.03;;;2.67;;
75048;SDS011;63803;53.120;8.764;2022-10-23T04:30:01;3.15;;;2.28;;
75048;SDS011;63803;53.120;8.764;2022-10-23T04:32:27;3.65;;;2.53;;
75048;SDS011;63803;53.120;8.764;2022-10-23T04:34:53;2.25;;;2.05;;
75048;SDS011;63803;53.120;8.764;2022-10-23T04:37:19;2.97;;;2.13;;
75048;SDS011;63803;53.120;8.764;2022-10-23T04:39:45;3.13;;;2.30;;
75048;SDS011;63803;53.120;8.764;2022-10-23T04:42:11;3.05;;;2.13;;
75048;SDS011;63803;53.120;8.764;2022-10-23T04:44:37;4.57;;;2.47;;
75048;SDS011;63803;53.120;8.764;2022-10-23T04:47:03;2.53;;;2.30;;
75048;SDS011;63803;53.120;8.764;2022-10-23T04:49:28;3.13;;;2.28;;
75048;SDS011;63803;53.120;8.764;2022-10-23T04:51:54;3.40;;;2.00;;
75048;SDS011;63803;53.120;8.764;2022-10-23T04:54:20;2.30;;;2.10;;
75048;SDS011;63803;53.120;8.764;2022-10-23T04:56:46;2.63;;;1.90;;
75048;SDS011;63803;53.120;8.764;2022-10-23T04:59:12;2.40;;;2.20;;
75048;SDS011;63803;53.120;8.764;2022-10-23T05:01:38;2.38;;;2.17;;
75048;SDS011;63803;53.120;8.764;2022-10-23T05:04:03;3.65;;;2.40;;
75048;SDS011;63803;53.120;8.764;2022-10-23T05:06:29;4.82;;;2.30;;
75048;SDS011;63803;53.120;8.764;2022-10-23T05:08:55;2.33;;;1.98;;
75048;SDS011;63803;53.120;8.764;2022-10-23T05:11:21;2.40;;;1.98;;
75048;SDS011;63803;53.120;8.764;2022-10-23T05:13:47;2.17;;;1.98;;
75048;SDS011;63803;53.120;8.764;2022-10-23T05:16:19;3.63;;;2.22;;
75048;SDS011;63803;53.120;8.764;2022-10-23T05:21:21;3.35;;;2.25;;
75048;SDS011;63803;53.120;8.764;2022-10-23T05:23:51;3.85;;;2.22;;
75048;SDS011;63803;53.120;8.764;2022-10-23T05:26:17;3.75;;;2.10;;
75048;SDS011;63803;53.120;8.764;2022-10-23T05:28:43;2.05;;;1.85;;
75048;SDS011;63803;53.120;8.764;2022-10-23T05:31:09;2.30;;;1.88;;
75048;SDS011;63803;53.120;8.764;2022-10-23T05:33:36;2.15;;;1.95;;
75048;SDS011;63803;53.120;8.764;2022-10-23T05:36:02;2.47;;;2.10;;
75048;SDS011;63803;53.120;8.764;2022-10-23T05:38:30;3.03;;;1.80;;
75048;SDS011;63803;53.120;8.764;2022-10-23T05:40:58;2.25;;;2.05;;
75048;SDS011;63803;53.120;8.764;2022-10-23T05:43:23;3.03;;;2.13;;
75048;SDS011;63803;53.120;8.764;2022-10-23T05:45:51;5.85;;;2.05;;
75048;SDS011;63803;53.120;8.764;2022-10-23T05:48:18;2.83;;;1.80;;
75048;SDS011;63803;53.120;8.764;2022-10-23T05:50:43;3.33;;;2.13;;
75048;SDS011;63803;53.120;8.764;2022-10-23T05:53:09;3.88;;;1.83;;
75048;SDS011;63803;53.120;8.764;2022-10-23T05:55:35;4.72;;;1.85;;
75048;SDS011;63803;53.120;8.764;2022-10-23T05:58:02;3.53;;;2.10;;
75048;SDS011;63803;53.120;8.764;2022-10-23T06:00:28;2.97;;;2.00;;
75048;SDS011;63803;53.120;8.764;2022-10-23T06:02:54;2.25;;;1.95;;
75048;SDS011;63803;53.120;8.764;2022-10-23T06:05:20;2.20;;;1.80;;
75048;SDS011;63803;53.120;8.764;2022-10-23T06:07:46;9.05;;;2.50;;
75048;SDS011;63803;53.120;8.764;2022-10-23T06:10:11;2.58;;;1.90;;
75048;SDS011;63803;53.120;8.764;2022-10-23T06:12:37;1.63;;;1.52;;
75048;SDS011;63803;53.120;8.764;2022-10-23T06:15:03;2.05;;;1.77;;
75048;SDS011;63803;53.120;8.764;2022-10-23T06:17:30;4.45;;;2.00;;
75048;SDS011;63803;53.120;8.764;2022-10-23T06:19:55;2.38;;;2.05;;
75048;SDS011;63803;53.120;8.764;2022-10-23T06:24:53;2.55;;;1.92;;
75048;SDS011;63803;53.120;8.764;2022-10-23T06:27:18;2.22;;;1.90;;
75048;SDS011;63803;53.120;8.764;2022-10-23T06:29:44;2.30;;;1.52;;
75048;SDS011;63803;53.120;8.764;2022-10-23T06:32:10;3.15;;;2.08;;
75048;SDS011;63803;53.120;8.764;2022-10-23T06:34:36;2.60;;;1.80;;
75048;SDS011;63803;53.120;8.764;2022-10-23T06:37:02;3.03;;;2.17;;
75048;SDS011;63803;53.120;8.764;2022-10-23T06:39:27;2.00;;;1.83;;
75048;SDS011;63803;53.120;8.764;2022-10-23T06:41:53;2.45;;;1.77;;
75048;SDS011;63803;53.120;8.764;2022-10-23T06:44:19;2.70;;;2.10;;
75048;SDS011;63803;53.120;8.764;2022-10-23T06:46:45;2.20;;;1.70;;
75048;SDS011;63803;53.120;8.764;2022-10-23T06:49:12;3.28;;;1.90;;
75048;SDS011;63803;53.120;8.764;2022-10-23T06:51:39;2.75;;;1.67;;
75048;SDS011;63803;53.120;8.764;2022-10-23T06:54:05;1.80;;;1.70;;
75048;SDS011;63803;53.120;8.764;2022-10-23T06:56:31;2.33;;;1.77;;
75048;SDS011;63803;53.120;8.764;2022-10-23T06:58:59;1.83;;;1.67;;
75048;SDS011;63803;53.120;8.764;2022-10-23T07:01:25;2.42;;;1.80;;
75048;SDS011;63803;53.120;8.764;2022-10-23T07:03:51;4.82;;;1.70;;
75048;SDS011;63803;53.120;8.764;2022-10-23T07:06:17;3.25;;;1.90;;
75048;SDS011;63803;53.120;8.764;2022-10-23T07:08:43;2.50;;;1.92;;
75048;SDS011;63803;53.120;8.764;2022-10-23T07:11:09;5.45;;;1.90;;
75048;SDS011;63803;53.120;8.764;2022-10-23T07:13:36;2.67;;;2.15;;
75048;SDS011;63803;53.120;8.764;2022-10-23T07:16:12;3.25;;;2.22;;
75048;SDS011;63803;53.120;8.764;2022-10-23T07:18:43;2.85;;;2.00;;
75048;SDS011;63803;53.120;8.764;2022-10-23T07:21:10;3.33;;;1.80;;
75048;SDS011;63803;53.120;8.764;2022-10-23T07:23:36;2.85;;;2.13;;
75048;SDS011;63803;53.120;8.764;2022-10-23T07:26:03;2.65;;;2.00;;
75048;SDS011;63803;53.120;8.764;2022-10-23T07:28:30;2.83;;;1.92;;
75048;SDS011;63803;53.120;8.764;2022-10-23T07:30:59;2.65;;;1.92;;
75048;SDS011;63803;53.120;8.764;2022-10-23T07:33:25;5.97;;;1.90;;
75048;SDS011;63803;53.120;8.764;2022-10-23T07:35:51;2.15;;;1.95;;
75048;SDS011;63803;53.120;8.764;2022-10-23T07:38:17;2.85;;;1.98;;
75048;SDS011;63803;53.120;8.764;2022-10-23T07:40:43;3.33;;;2.20;;
75048;SDS011;63803;53.120;8.764;2022-10-23T07:43:09;3.63;;;1.85;;
75048;SDS011;63803;53.120;8.764;2022-10-23T07:45:35;2.20;;;2.00;;
75048;SDS011;63803;53.120;8.764;2022-10-23T07:48:01;4.97;;;2.00;;
75048;SDS011;63803;53.120;8.764;2022-10-23T07:50:27;4.57;;;1.90;;
75048;SDS011;63803;53.120;8.764;2022-10-23T07:52:52;2.40;;;2.10;;
75048;SDS011;63803;53.120;8.764;2022-10-23T07:55:18;2.13;;;1.83;;
75048;SDS011;63803;53.120;8.764;2022-10-23T07:57:44;2.10;;;1.90;;
75048;SDS011;63803;53.120;8.764;2022-10-23T08:00:10;2.47;;;1.90;;
75048;SDS011;63803;53.120;8.764;2022-10-23T08:02:36;2.50;;;1.95;;
75048;SDS011;63803;53.120;8.764;2022-10-23T08:05:02;4.30;;;2.20;;
75048;SDS011;63803;53.120;8.764;2022-10-23T08:07:29;3.50;;;2.30;;
75048;SDS011;63803;53.120;8.764;2022-10-23T08:09:54;2.00;;;1.83;;
75048;SDS011;63803;53.120;8.764;2022-10-23T08:12:20;2.00;;;1.77;;
75048;SDS011;63803;53.120;8.764;2022-10-23T08:14:46;2.15;;;1.90;;
75048;SDS011;63803;53.120;8.764;2022-10-23T08:17:12;2.10;;;1.92;;
75048;SDS011;63803;53.120;8.764;2022-10-23T08:19:38;2.15;;;1.95;;
75048;SDS011;63803;53.120;8.764;2022-10-23T08:22:04;3.92;;;1.88;;
75048;SDS011;63803;53.120;8.764;2022-10-23T08:24:29;2.58;;;1.80;;
75048;SDS011;63803;53.120;8.764;2022-10-23T08:26:55;3.30;;;2.00;;
75048;SDS011;63803;53.120;8.764;2022-10-23T08:29:22;2.95;;;2.00;;
75048;SDS011;63803;53.120;8.764;2022-10-23T08:31:51;2.17;;;1.88;;
75048;SDS011;63803;53.120;8.764;2022-10-23T08:34:17;2.97;;;2.00;;
75048;SDS011;63803;53.120;8.764;2022-10-23T08:36:45;5.35;;;2.00;;
75048;SDS011;63803;53.120;8.764;2022-10-23T08:39:10;7.03;;;2.13;;
75048;SDS011;63803;53.120;8.764;2022-10-23T08:41:40;2.50;;;2.22;;
75048;SDS011;63803;53.120;8.764;2022-10-23T08:44:18;5.38;;;2.13;;
75048;SDS011;63803;53.120;8.764;2022-10-23T08:46:49;2.60;;;2.13;;
75048;SDS011;63803;53.120;8.764;2022-10-23T08:51:47;2.47;;;2.10;;
75048;SDS011;63803;53.120;8.764;2022-10-23T08:54:41;2.63;;;2.13;;
75048;SDS011;63803;53.120;8.764;2022-10-23T08:57:15;2.97;;;1.83;;
75048;SDS011;63803;53.120;8.764;2022-10-23T09:00:00;3.38;;;1.77;;
75048;SDS011;63803;53.120;8.764;2022-10-23T09:02:40;2.75;;;2.00;;
75048;SDS011;63803;53.120;8.764;2022-10-23T09:05:28;2.50;;;1.70;;
75048;SDS011;63803;53.120;8.764;2022-10-23T09:11:15;2.30;;;2.10;;
75048;SDS011;63803;53.120;8.764;2022-10-23T09:16:35;2.83;;;2.25;;
75048;SDS011;63803;53.120;8.764;2022-10-23T09:19:14;2.33;;;1.88;;
75048;SDS011;63803;53.120;8.764;2022-10-23T09:21:47;2.28;;;2.08;;
75048;SDS011;63803;53.120;8.764;2022-10-23T09:24:15;2.85;;;2.05;;
75048;SDS011;63803;53.120;8.764;2022-10-23T09:26:48;1.70;;;1.60;;
75048;SDS011;63803;53.120;8.764;2022-10-23T09:29:23;2.42;;;1.80;;
75048;SDS011;63803;53.120;8.764;2022-10-23T09:31:55;3.47;;;1.77;;
75048;SDS011;63803;53.120;8.764;2022-10-23T09:34:27;2.45;;;2.10;;
75048;SDS011;63803;53.120;8.764;2022-10-23T09:36:55;3.25;;;2.10;;
75048;SDS011;63803;53.120;8.764;2022-10-23T09:39:25;4.82;;;2.13;;
75048;SDS011;63803;53.120;8.764;2022-10-23T09:41:56;2.55;;;2.35;;
75048;SDS011;63803;53.120;8.764;2022-10-23T09:44:24;3.08;;;1.92;;
75048;SDS011;63803;53.120;8.764;2022-10-23T09:46:59;4.72;;;2.10;;
75048;SDS011;63803;53.120;8.764;2022-10-23T09:49:37;2.80;;;1.92;;
75048;SDS011;63803;53.120;8.764;2022-10-23T09:54:38;4.90;;;2.00;;
75048;SDS011;63803;53.120;8.764;2022-10-23T09:57:32;4.18;;;1.92;;
75048;SDS011;63803;53.120;8.764;2022-10-23T10:00:13;2.97;;;2.08;;
75048;SDS011;63803;53.120;8.764;2022-10-23T10:02:57;5.18;;;2.17;;
75048;SDS011;63803;53.120;8.764;2022-10-23T10:07:55;2.00;;;1.80;;
75048;SDS011;63803;53.120;8.764;2022-10-23T10:10:27;3.70;;;1.85;;
75048;SDS011;63803;53.120;8.764;2022-10-23T10:12:57;4.40;;;1.95;;
75048;SDS011;63803;53.120;8.764;2022-10-23T10:15:30;2.00;;;1.80;;
75048;SDS011;63803;53.120;8.764;2022-10-23T10:23:27;2.80;;;1.95;;
75048;SDS011;63803;53.120;8.764;2022-10-23T10:26:01;3.67;;;1.80;;
75048;SDS011;63803;53.120;8.764;2022-10-23T10:36:56;8.75;;;2.20;;
75048;SDS011;63803;53.120;8.764;2022-10-23T10:45:37;4.68;;;2.03;;
75048;SDS011;63803;53.120;8.764;2022-10-23T10:50:59;2.53;;;1.88;;
75048;SDS011;63803;53.120;8.764;2022-10-23T10:53:38;2.28;;;2.00;;
75048;SDS011;63803;53.120;8.764;2022-10-23T10:56:25;4.45;;;1.98;;
75048;SDS011;63803;53.120;8.764;2022-10-23T10:58:54;2.60;;;1.83;;
75048;SDS011;63803;53.120;8.764;2022-10-23T11:01:33;5.10;;;2.13;;
75048;SDS011;63803;53.120;8.764;2022-10-23T11:04:31;4.63;;;2.00;;
75048;SDS011;63803;53.120;8.764;2022-10-23T11:07:06;3.20;;;1.73;;
75048;SDS011;63803;53.120;8.764;2022-10-23T11:12:03;2.60;;;2.03;;
75048;SDS011;63803;53.120;8.764;2022-10-23T11:14:30;3.17;;;1.90;;
75048;SDS011;63803;53.120;8.764;2022-10-23T11:17:02;7.70;;;2.30;;
75048;SDS011;63803;53.120;8.764;2022-10-23T11:19:46;3.90;;;2.17;;
75048;SDS011;63803;53.120;8.764;2022-10-23T11:22:29;2.20;;;1.80;;
75048;SDS011;63803;53.120;8.764;2022-10-23T11:34:16;4.57;;;2.00;;
75048;SDS011;63803;53.120;8.764;2022-10-23T11:36:58;2.90;;;1.80;;
75048;SDS011;63803;53.120;8.764;2022-10-23T11:39:29;3.28;;;2.00;;
75048;SDS011;63803;53.120;8.764;2022-10-23T11:41:58;3.13;;;2.10;;
75048;SDS011;63803;53.120;8.764;2022-10-23T11:52:31;4.50;;;1.92;;
75048;SDS011;63803;53.120;8.764;2022-10-23T11:57:58;3.72;;;2.38;;
75048;SDS011;63803;53.120;8.764;2022-10-23T12:00:55;6.35;;;2.22;;
75048;SDS011;63803;53.120;8.764;2022-10-23T12:06:58;3.78;;;1.88;;
75048;SDS011;63803;53.120;8.764;2022-10-23T12:16:59;10.70;;;2.78;;
75048;SDS011;63803;53.120;8.764;2022-10-23T12:19:28;7.85;;;2.45;;
75048;SDS011;63803;53.120;8.764;2022-10-23T12:21:59;9.07;;;2.65;;
75048;SDS011;63803;53.120;8.764;2022-10-23T12:33:00;11.35;;;2.65;;
75048;SDS011;63803;53.120;8.764;2022-10-23T12:38:20;10.13;;;2.67;;
75048;SDS011;63803;53.120;8.764;2022-10-23T12:40:52;8.45;;;2.45;;
75048;SDS011;63803;53.120;8.764;2022-10-23T12:43:28;8.80;;;2.17;;
75048;SDS011;63803;53.120;8.764;2022-10-23T12:46:02;7.65;;;2.20;;
75048;SDS011;63803;53.120;8.764;2022-10-23T12:48:50;5.28;;;2.05;;
75048;SDS011;63803;53.120;8.764;2022-10-23T12:51:31;12.60;;;2.20;;
75048;SDS011;63803;53.120;8.764;2022-10-23T12:53:59;7.57;;;2.05;;
75048;SDS011;63803;53.120;8.764;2022-10-23T12:56:26;8.95;;;2.30;;
75048;SDS011;63803;53.120;8.764;2022-10-23T12:58:58;7.25;;;1.98;;
75048;SDS011;63803;53.120;8.764;2022-10-23T13:04:01;7.03;;;1.95;;
75048;SDS011;63803;53.120;8.764;2022-10-23T13:06:48;5.80;;;1.88;;
75048;SDS011;63803;53.120;8.764;2022-10-23T13:09:21;10.65;;;2.63;;
75048;SDS011;63803;53.120;8.764;2022-10-23T13:11:53;6.05;;;2.05;;
75048;SDS011;63803;53.120;8.764;2022-10-23T13:14:36;9.93;;;2.33;;
75048;SDS011;63803;53.120;8.764;2022-10-23T13:17:06;7.57;;;2.35;;
75048;SDS011;63803;53.120;8.764;2022-10-23T13:19:34;4.50;;;1.73;;
75048;SDS011;63803;53.120;8.764;2022-10-23T13:22:02;9.70;;;2.05;;
75048;SDS011;63803;53.120;8.764;2022-10-23T13:24:38;8.75;;;3.13;;
75048;SDS011;63803;53.120;8.764;2022-10-23T13:32:58;13.88;;;2.13;;
75048;SDS011;63803;53.120;8.764;2022-10-23T13:35:25;15.73;;;3.03;;
75048;SDS011;63803;53.120;8.764;2022-10-23T13:37:51;4.75;;;2.20;;
75048;SDS011;63803;53.120;8.764;2022-10-23T13:40:24;8.93;;;1.90;;
75048;SDS011;63803;53.120;8.764;2022-10-23T13:42:54;13.63;;;2.08;;
75048;SDS011;63803;53.120;8.764;2022-10-23T13:45:22;7.80;;;2.17;;
75048;SDS011;63803;53.120;8.764;2022-10-23T13:47:49;7.18;;;1.95;;
75048;SDS011;63803;53.120;8.764;2022-10-23T13:50:15;5.68;;;2.22;;
75048;SDS011;63803;53.120;8.764;2022-10-23T13:52:41;6.00;;;2.00;;
75048;SDS011;63803;53.120;8.764;2022-10-23T13:55:18;2.95;;;1.80;;
75048;SDS011;63803;53.120;8.764;2022-10-23T13:57:48;6.88;;;1.85;;
75048;SDS011;63803;53.120;8.764;2022-10-23T14:00:14;4.30;;;1.80;;
75048;SDS011;63803;53.120;8.764;2022-10-23T14:02:41;7.30;;;2.20;;
75048;SDS011;63803;53.120;8.764;2022-10-23T14:05:07;7.80;;;3.25;;
75048;SDS011;63803;53.120;8.764;2022-10-23T14:07:34;6.47;;;1.77;;
75048;SDS011;63803;53.120;8.764;2022-10-23T14:10:00;8.77;;;2.20;;
75048;SDS011;63803;53.120;8.764;2022-10-23T14:12:25;6.68;;;1.85;;
75048;SDS011;63803;53.120;8.764;2022-10-23T14:14:51;13.60;;;2.08;;
75048;SDS011;63803;53.120;8.764;2022-10-23T14:17:18;5.43;;;2.00;;
75048;SDS011;63803;53.120;8.764;2022-10-23T14:19:45;6.53;;;2.40;;
75048;SDS011;63803;53.120;8.764;2022-10-23T14:22:11;2.70;;;1.80;;
75048;SDS011;63803;53.120;8.764;2022-10-23T14:24:37;6.32;;;1.83;;
75048;SDS011;63803;53.120;8.764;2022-10-23T14:27:03;2.97;;;1.58;;
75048;SDS011;63803;53.120;8.764;2022-10-23T14:29:29;4.10;;;1.80;;
75048;SDS011;63803;53.120;8.764;2022-10-23T14:31:55;5.55;;;2.33;;
75048;SDS011;63803;53.120;8.764;2022-10-23T14:34:21;7.40;;;1.70;;
75048;SDS011;63803;53.120;8.764;2022-10-23T14:36:47;4.20;;;1.67;;
75048;SDS011;63803;53.120;8.764;2022-10-23T14:39:13;10.07;;;1.80;;
75048;SDS011;63803;53.120;8.764;2022-10-23T14:41:38;4.90;;;1.83;;
75048;SDS011;63803;53.120;8.764;2022-10-23T14:44:05;4.47;;;1.92;;
75048;SDS011;63803;53.120;8.764;2022-10-23T14:46:31;5.13;;;1.83;;
75048;SDS011;63803;53.120;8.764;2022-10-23T14:48:57;2.65;;;1.77;;
75048;SDS011;63803;53.120;8.764;2022-10-23T14:51:27;5.55;;;2.08;;
75048;SDS011;63803;53.120;8.764;2022-10-23T14:53:55;6.22;;;2.05;;
75048;SDS011;63803;53.120;8.764;2022-10-23T14:56:24;10.70;;;2.28;;
75048;SDS011;63803;53.120;8.764;2022-10-23T14:58:50;7.72;;;1.95;;
75048;SDS011;63803;53.120;8.764;2022-10-23T15:01:16;2.72;;;1.73;;
75048;SDS011;63803;53.120;8.764;2022-10-23T15:03:41;7.38;;;2.15;;
75048;SDS011;63803;53.120;8.764;2022-10-23T15:06:08;4.60;;;1.98;;
75048;SDS011;63803;53.120;8.764;2022-10-23T15:08:35;4.70;;;2.03;;
75048;SDS011;63803;53.120;8.764;2022-10-23T15:11:01;7.28;;;2.45;;
75048;SDS011;63803;53.120;8.764;2022-10-23T15:13:29;9.77;;;2.20;;
75048;SDS011;63803;53.120;8.764;2022-10-23T15:16:02;14.50;;;2.20;;
75048;SDS011;63803;53.120;8.764;2022-10-23T15:18:29;7.88;;;2.25;;
75048;SDS011;63803;53.120;8.764;2022-10-23T15:20:55;6.15;;;1.90;;
75048;SDS011;63803;53.120;8.764;2022-10-23T15:23:21;10.73;;;2.20;;
75048;SDS011;63803;53.120;8.764;2022-10-23T15:25:54;6.93;;;2.13;;
75048;SDS011;63803;53.120;8.764;2022-10-23T15:28:21;5.82;;;2.10;;
75048;SDS011;63803;53.120;8.764;2022-10-23T15:30:47;10.90;;;2.08;;
75048;SDS011;63803;53.120;8.764;2022-10-23T15:33:12;5.53;;;2.00;;
75048;SDS011;63803;53.120;8.764;2022-10-23T15:35:38;7.03;;;2.20;;
75048;SDS011;63803;53.120;8.764;2022-10-23T15:38:04;9.73;;;2.20;;
75048;SDS011;63803;53.120;8.764;2022-10-23T15:40:30;5.50;;;2.20;;
75048;SDS011;63803;53.120;8.764;2022-10-23T15:42:56;4.90;;;1.90;;
75048;SDS011;63803;53.120;8.764;2022-10-23T15:45:21;9.77;;;2.40;;
75048;SDS011;63803;53.120;8.764;2022-10-23T15:47:47;2.53;;;1.63;;
75048;SDS011;63803;53.120;8.764;2022-10-23T15:50:15;4.72;;;2.00;;
75048;SDS011;63803;53.120;8.764;2022-10-23T15:52:41;4.18;;;1.80;;
75048;SDS011;63803;53.120;8.764;2022-10-23T15:55:07;6.93;;;1.98;;
75048;SDS011;63803;53.120;8.764;2022-10-23T15:57:37;5.75;;;1.90;;
75048;SDS011;63803;53.120;8.764;2022-10-23T16:00:05;9.95;;;1.58;;
75048;SDS011;63803;53.120;8.764;2022-10-23T16:02:32;7.63;;;2.35;;
75048;SDS011;63803;53.120;8.764;2022-10-23T16:04:57;8.80;;;2.35;;
75048;SDS011;63803;53.120;8.764;2022-10-23T16:07:23;6.30;;;1.90;;
75048;SDS011;63803;53.120;8.764;2022-10-23T16:09:49;3.08;;;1.95;;
75048;SDS011;63803;53.120;8.764;2022-10-23T16:12:15;11.07;;;2.28;;
75048;SDS011;63803;53.120;8.764;2022-10-23T16:14:42;7.18;;;2.17;;
75048;SDS011;63803;53.120;8.764;2022-10-23T16:17:09;4.57;;;1.80;;
75048;SDS011;63803;53.120;8.764;2022-10-23T16:19:35;16.08;;;2.15;;
75048;SDS011;63803;53.120;8.764;2022-10-23T16:22:01;3.50;;;2.00;;
75048;SDS011;63803;53.120;8.764;2022-10-23T16:24:27;3.10;;;1.55;;
75048;SDS011;63803;53.120;8.764;2022-10-23T16:26:53;6.35;;;2.17;;
75048;SDS011;63803;53.120;8.764;2022-10-23T16:29:22;7.43;;;2.15;;
75048;SDS011;63803;53.120;8.764;2022-10-23T16:31:50;7.15;;;1.88;;
75048;SDS011;63803;53.120;8.764;2022-10-23T16:34:17;7.22;;;1.90;;
75048;SDS011;63803;53.120;8.764;2022-10-23T16:36:42;10.13;;;1.88;;
75048;SDS011;63803;53.120;8.764;2022-10-23T16:39:09;9.23;;;2.20;;
75048;SDS011;63803;53.120;8.764;2022-10-23T16:41:36;4.53;;;2.08;;
75048;SDS011;63803;53.120;8.764;2022-10-23T16:44:02;3.38;;;1.95;;
75048;SDS011;63803;53.120;8.764;2022-10-23T16:46:28;3.70;;;1.88;;
75048;SDS011;63803;53.120;8.764;2022-10-23T16:48:54;7.95;;;2.00;;
75048;SDS011;63803;53.120;8.764;2022-10-23T16:51:22;4.07;;;1.60;;
75048;SDS011;63803;53.120;8.764;2022-10-23T16:53:50;5.05;;;1.65;;
75048;SDS011;63803;53.120;8.764;2022-10-23T16:56:17;5.20;;;2.00;;
75048;SDS011;63803;53.120;8.764;2022-10-23T16:58:47;16.98;;;2.05;;
75048;SDS011;63803;53.120;8.764;2022-10-23T17:01:15;5.13;;;1.73;;